sensor_id;sensor_type;location;lat;lon;timestamp;P1;durP1;ratioP1;P2;durP2;ratioP2
53545;SDS011;39432;51.902;10.844;2022-12-07T00:01:55;10.60;;;6.40;;
53545;SDS011;39432;51.902;10.844;2022-12-07T00:04:24;9.75;;;6.25;;
53545;SDS011;39432;51.902;10.844;2022-12-07T00:06:57;12.80;;;7.05;;
53545;SDS011;39432;51.902;10.844;2022-12-07T00:09:28;10.45;;;6.22;;
53545;SDS011;39432;51.902;10.844;2022-12-07T00:11:58;9.15;;;6.38;;
53545;SDS011;39432;51.902;10.844;2022-12-07T00:14:27;9.05;;;6.28;;
53545;SDS011;39432;51.902;10.844;2022-12-07T00:16:57;11.10;;;7.07;;
53545;SDS011;39432;51.902;10.844;2022-12-07T00:19:27;10.15;;;6.45;;
53545;SDS011;39432;51.902;10.844;2022-12-07T00:22:00;10.10;;;6.50;;
53545;SDS011;39432;51.902;10.844;2022-12-07T00:24:29;11.60;;;7.05;;
53545;SDS011;39432;51.902;10.844;2022-12-07T00:26:59;12.60;;;7.07;;
53545;SDS011;39432;51.902;10.844;2022-12-07T00:29:29;9.73;;;6.07;;
53545;SDS011;39432;51.902;10.844;2022-12-07T00:31:58;9.20;;;6.60;;
53545;SDS011;39432;51.902;10.844;2022-12-07T00:34:29;8.52;;;5.90;;
53545;SDS011;39432;51.902;10.844;2022-12-07T00:37:01;8.32;;;5.85;;
53545;SDS011;39432;51.902;10.844;2022-12-07T00:39:31;10.30;;;6.57;;
53545;SDS011;39432;51.902;10.844;2022-12-07T00:42:01;10.70;;;6.07;;
53545;SDS011;39432;51.902;10.844;2022-12-07T00:44:31;11.43;;;7.07;;
53545;SDS011;39432;51.902;10.844;2022-12-07T00:47:00;12.90;;;6.88;;
53545;SDS011;39432;51.902;10.844;2022-12-07T00:49:30;11.45;;;6.05;;
53545;SDS011;39432;51.902;10.844;2022-12-07T00:52:03;10.00;;;6.28;;
53545;SDS011;39432;51.902;10.844;2022-12-07T00:54:32;10.63;;;5.95;;
53545;SDS011;39432;51.902;10.844;2022-12-07T00:57:02;10.60;;;6.13;;
53545;SDS011;39432;51.902;10.844;2022-12-07T00:59:32;9.13;;;5.75;;
53545;SDS011;39432;51.902;10.844;2022-12-07T01:02:02;9.90;;;5.82;;
53545;SDS011;39432;51.902;10.844;2022-12-07T01:04:33;8.70;;;5.47;;
53545;SDS011;39432;51.902;10.844;2022-12-07T01:07:05;8.77;;;5.30;;
53545;SDS011;39432;51.902;10.844;2022-12-07T01:09:35;10.82;;;6.20;;
53545;SDS011;39432;51.902;10.844;2022-12-07T01:12:05;10.10;;;6.78;;
53545;SDS011;39432;51.902;10.844;2022-12-07T01:14:34;9.73;;;6.70;;
53545;SDS011;39432;51.902;10.844;2022-12-07T01:17:04;10.13;;;6.03;;
53545;SDS011;39432;51.902;10.844;2022-12-07T01:19:34;10.52;;;6.47;;
53545;SDS011;39432;51.902;10.844;2022-12-07T01:22:06;10.93;;;6.88;;
53545;SDS011;39432;51.902;10.844;2022-12-07T01:24:36;13.15;;;7.47;;
53545;SDS011;39432;51.902;10.844;2022-12-07T01:27:06;9.82;;;6.35;;
53545;SDS011;39432;51.902;10.844;2022-12-07T01:29:35;11.13;;;6.55;;
53545;SDS011;39432;51.902;10.844;2022-12-07T01:32:05;13.35;;;6.45;;
53545;SDS011;39432;51.902;10.844;2022-12-07T01:34:35;9.02;;;5.90;;
53545;SDS011;39432;51.902;10.844;2022-12-07T01:37:08;11.68;;;6.35;;
53545;SDS011;39432;51.902;10.844;2022-12-07T01:39:37;9.85;;;6.22;;
53545;SDS011;39432;51.902;10.844;2022-12-07T01:42:08;9.00;;;6.20;;
53545;SDS011;39432;51.902;10.844;2022-12-07T01:47:38;9.18;;;6.15;;
53545;SDS011;39432;51.902;10.844;2022-12-07T01:50:08;9.43;;;6.18;;
53545;SDS011;39432;51.902;10.844;2022-12-07T01:52:41;8.52;;;5.88;;
53545;SDS011;39432;51.902;10.844;2022-12-07T01:55:13;8.50;;;5.53;;
53545;SDS011;39432;51.902;10.844;2022-12-07T01:57:46;7.88;;;5.22;;
53545;SDS011;39432;51.902;10.844;2022-12-07T02:00:18;7.03;;;5.03;;
53545;SDS011;39432;51.902;10.844;2022-12-07T02:02:51;8.88;;;4.97;;
53545;SDS011;39432;51.902;10.844;2022-12-07T02:05:24;4.68;;;3.35;;
53545;SDS011;39432;51.902;10.844;2022-12-07T02:07:57;6.72;;;4.63;;
53545;SDS011;39432;51.902;10.844;2022-12-07T02:10:29;6.03;;;4.28;;
53545;SDS011;39432;51.902;10.844;2022-12-07T02:13:01;6.57;;;4.35;;
53545;SDS011;39432;51.902;10.844;2022-12-07T02:15:37;6.07;;;4.40;;
53545;SDS011;39432;51.902;10.844;2022-12-07T02:18:16;5.55;;;4.10;;
53545;SDS011;39432;51.902;10.844;2022-12-07T02:20:53;6.00;;;4.20;;
53545;SDS011;39432;51.902;10.844;2022-12-07T02:29:55;4.88;;;3.63;;
53545;SDS011;39432;51.902;10.844;2022-12-07T02:32:31;5.20;;;3.60;;
53545;SDS011;39432;51.902;10.844;2022-12-07T02:35:11;5.50;;;3.72;;
53545;SDS011;39432;51.902;10.844;2022-12-07T02:37:48;4.57;;;3.50;;
53545;SDS011;39432;51.902;10.844;2022-12-07T02:40:27;4.40;;;3.40;;
53545;SDS011;39432;51.902;10.844;2022-12-07T02:43:02;7.20;;;3.75;;
53545;SDS011;39432;51.902;10.844;2022-12-07T02:45:40;5.43;;;3.63;;
53545;SDS011;39432;51.902;10.844;2022-12-07T02:48:12;5.00;;;3.63;;
53545;SDS011;39432;51.902;10.844;2022-12-07T02:50:45;4.72;;;3.70;;
53545;SDS011;39432;51.902;10.844;2022-12-07T02:53:32;5.25;;;3.67;;
53545;SDS011;39432;51.902;10.844;2022-12-07T02:56:05;4.65;;;3.45;;
53545;SDS011;39432;51.902;10.844;2022-12-07T02:58:46;5.22;;;4.00;;
53545;SDS011;39432;51.902;10.844;2022-12-07T03:01:26;4.97;;;3.38;;
53545;SDS011;39432;51.902;10.844;2022-12-07T03:04:02;4.03;;;3.33;;
53545;SDS011;39432;51.902;10.844;2022-12-07T03:06:42;4.20;;;3.08;;
53545;SDS011;39432;51.902;10.844;2022-12-07T03:09:20;4.70;;;3.28;;
53545;SDS011;39432;51.902;10.844;2022-12-07T03:11:58;4.80;;;3.47;;
53545;SDS011;39432;51.902;10.844;2022-12-07T03:14:34;4.70;;;3.42;;
53545;SDS011;39432;51.902;10.844;2022-12-07T03:17:12;5.35;;;3.17;;
53545;SDS011;39432;51.902;10.844;2022-12-07T03:19:45;5.05;;;3.60;;
53545;SDS011;39432;51.902;10.844;2022-12-07T03:22:19;4.53;;;3.30;;
53545;SDS011;39432;51.902;10.844;2022-12-07T03:24:51;4.07;;;2.85;;
53545;SDS011;39432;51.902;10.844;2022-12-07T03:27:25;4.18;;;3.20;;
53545;SDS011;39432;51.902;10.844;2022-12-07T03:30:00;4.30;;;3.03;;
53545;SDS011;39432;51.902;10.844;2022-12-07T03:32:36;3.97;;;3.08;;
53545;SDS011;39432;51.902;10.844;2022-12-07T03:35:12;4.32;;;3.38;;
53545;SDS011;39432;51.902;10.844;2022-12-07T03:37:47;4.78;;;3.10;;
53545;SDS011;39432;51.902;10.844;2022-12-07T03:40:21;4.28;;;2.83;;
53545;SDS011;39432;51.902;10.844;2022-12-07T03:42:55;3.42;;;2.67;;
53545;SDS011;39432;51.902;10.844;2022-12-07T03:45:28;4.85;;;3.40;;
53545;SDS011;39432;51.902;10.844;2022-12-07T03:48:05;4.47;;;2.90;;
53545;SDS011;39432;51.902;10.844;2022-12-07T03:50:41;4.53;;;2.70;;
53545;SDS011;39432;51.902;10.844;2022-12-07T03:53:18;3.97;;;2.60;;
53545;SDS011;39432;51.902;10.844;2022-12-07T03:55:51;4.93;;;2.70;;
53545;SDS011;39432;51.902;10.844;2022-12-07T03:58:23;3.15;;;2.42;;
53545;SDS011;39432;51.902;10.844;2022-12-07T04:00:54;4.45;;;3.17;;
53545;SDS011;39432;51.902;10.844;2022-12-07T04:03:27;6.22;;;3.22;;
53545;SDS011;39432;51.902;10.844;2022-12-07T04:05:57;5.75;;;3.70;;
53545;SDS011;39432;51.902;10.844;2022-12-07T04:08:27;5.28;;;3.92;;
53545;SDS011;39432;51.902;10.844;2022-12-07T04:10:56;6.30;;;3.85;;
53545;SDS011;39432;51.902;10.844;2022-12-07T04:13:26;8.32;;;4.80;;
53545;SDS011;39432;51.902;10.844;2022-12-07T04:15:56;10.68;;;5.10;;
53545;SDS011;39432;51.902;10.844;2022-12-07T04:18:28;8.57;;;4.82;;
53545;SDS011;39432;51.902;10.844;2022-12-07T04:20:58;7.05;;;4.45;;
53545;SDS011;39432;51.902;10.844;2022-12-07T04:23:28;7.28;;;5.35;;
53545;SDS011;39432;51.902;10.844;2022-12-07T04:25:58;6.97;;;4.68;;
53545;SDS011;39432;51.902;10.844;2022-12-07T04:28:29;6.47;;;4.05;;
53545;SDS011;39432;51.902;10.844;2022-12-07T04:30:58;8.63;;;4.68;;
53545;SDS011;39432;51.902;10.844;2022-12-07T04:33:31;8.73;;;4.78;;
53545;SDS011;39432;51.902;10.844;2022-12-07T04:36:00;7.68;;;4.57;;
53545;SDS011;39432;51.902;10.844;2022-12-07T04:38:30;7.82;;;4.35;;
53545;SDS011;39432;51.902;10.844;2022-12-07T04:41:03;8.30;;;4.75;;
53545;SDS011;39432;51.902;10.844;2022-12-07T04:43:34;7.63;;;4.10;;
53545;SDS011;39432;51.902;10.844;2022-12-07T04:46:05;10.57;;;4.65;;
53545;SDS011;39432;51.902;10.844;2022-12-07T04:48:38;9.52;;;3.88;;
53545;SDS011;39432;51.902;10.844;2022-12-07T04:51:07;7.32;;;3.72;;
53545;SDS011;39432;51.902;10.844;2022-12-07T04:53:37;10.48;;;4.13;;
53545;SDS011;39432;51.902;10.844;2022-12-07T04:56:07;8.85;;;4.07;;
53545;SDS011;39432;51.902;10.844;2022-12-07T04:58:37;7.68;;;3.47;;
53545;SDS011;39432;51.902;10.844;2022-12-07T05:01:07;7.07;;;3.33;;
53545;SDS011;39432;51.902;10.844;2022-12-07T05:03:39;7.28;;;3.75;;
53545;SDS011;39432;51.902;10.844;2022-12-07T05:06:09;7.13;;;3.58;;
53545;SDS011;39432;51.902;10.844;2022-12-07T05:08:39;9.63;;;3.88;;
53545;SDS011;39432;51.902;10.844;2022-12-07T05:11:10;8.65;;;4.00;;
53545;SDS011;39432;51.902;10.844;2022-12-07T05:14:01;8.48;;;3.80;;
53545;SDS011;39432;51.902;10.844;2022-12-07T05:16:32;7.57;;;3.47;;
53545;SDS011;39432;51.902;10.844;2022-12-07T05:19:05;8.15;;;3.67;;
53545;SDS011;39432;51.902;10.844;2022-12-07T05:21:35;7.35;;;3.25;;
53545;SDS011;39432;51.902;10.844;2022-12-07T05:24:05;8.52;;;3.72;;
53545;SDS011;39432;51.902;10.844;2022-12-07T05:26:36;7.72;;;3.45;;
53545;SDS011;39432;51.902;10.844;2022-12-07T05:29:06;5.90;;;3.47;;
53545;SDS011;39432;51.902;10.844;2022-12-07T05:31:36;8.77;;;3.38;;
53545;SDS011;39432;51.902;10.844;2022-12-07T05:34:08;9.25;;;3.92;;
53545;SDS011;39432;51.902;10.844;2022-12-07T05:36:39;6.85;;;3.28;;
53545;SDS011;39432;51.902;10.844;2022-12-07T05:39:09;6.88;;;3.55;;
53545;SDS011;39432;51.902;10.844;2022-12-07T05:41:40;7.28;;;3.50;;
53545;SDS011;39432;51.902;10.844;2022-12-07T05:44:25;9.57;;;3.40;;
53545;SDS011;39432;51.902;10.844;2022-12-07T05:46:56;8.13;;;3.58;;
53545;SDS011;39432;51.902;10.844;2022-12-07T05:49:28;7.45;;;3.40;;
53545;SDS011;39432;51.902;10.844;2022-12-07T05:51:58;6.53;;;3.30;;
53545;SDS011;39432;51.902;10.844;2022-12-07T05:54:28;9.55;;;3.97;;
53545;SDS011;39432;51.902;10.844;2022-12-07T05:56:58;11.10;;;3.97;;
53545;SDS011;39432;51.902;10.844;2022-12-07T05:59:28;9.05;;;3.83;;
53545;SDS011;39432;51.902;10.844;2022-12-07T06:01:56;12.10;;;3.88;;
53545;SDS011;39432;51.902;10.844;2022-12-07T06:04:30;8.23;;;3.65;;
53545;SDS011;39432;51.902;10.844;2022-12-07T06:07:02;8.20;;;4.07;;
53545;SDS011;39432;51.902;10.844;2022-12-07T06:09:32;17.02;;;4.28;;
53545;SDS011;39432;51.902;10.844;2022-12-07T06:12:03;7.57;;;4.13;;
53545;SDS011;39432;51.902;10.844;2022-12-07T06:14:46;6.60;;;4.07;;
53545;SDS011;39432;51.902;10.844;2022-12-07T06:17:16;9.18;;;3.60;;
53545;SDS011;39432;51.902;10.844;2022-12-07T06:19:49;7.63;;;3.28;;
53545;SDS011;39432;51.902;10.844;2022-12-07T06:22:18;7.93;;;3.80;;
53545;SDS011;39432;51.902;10.844;2022-12-07T06:24:48;7.35;;;3.47;;
53545;SDS011;39432;51.902;10.844;2022-12-07T06:27:18;6.47;;;3.38;;
53545;SDS011;39432;51.902;10.844;2022-12-07T06:29:48;6.38;;;3.45;;
53545;SDS011;39432;51.902;10.844;2022-12-07T06:32:17;8.32;;;3.70;;
53545;SDS011;39432;51.902;10.844;2022-12-07T06:34:51;8.20;;;3.78;;
53545;SDS011;39432;51.902;10.844;2022-12-07T06:37:21;7.05;;;3.80;;
53545;SDS011;39432;51.902;10.844;2022-12-07T06:39:50;14.55;;;6.55;;
53545;SDS011;39432;51.902;10.844;2022-12-07T06:42:20;9.38;;;4.65;;
53545;SDS011;39432;51.902;10.844;2022-12-07T06:44:50;9.80;;;4.10;;
53545;SDS011;39432;51.902;10.844;2022-12-07T06:47:20;9.15;;;4.40;;
53545;SDS011;39432;51.902;10.844;2022-12-07T06:50:09;7.18;;;4.03;;
53545;SDS011;39432;51.902;10.844;2022-12-07T06:52:39;8.85;;;4.22;;
53545;SDS011;39432;51.902;10.844;2022-12-07T06:55:08;8.43;;;4.95;;
53545;SDS011;39432;51.902;10.844;2022-12-07T06:57:38;10.27;;;4.38;;
53545;SDS011;39432;51.902;10.844;2022-12-07T07:00:09;12.27;;;4.82;;
53545;SDS011;39432;51.902;10.844;2022-12-07T07:02:47;8.52;;;4.13;;
53545;SDS011;39432;51.902;10.844;2022-12-07T07:05:21;8.70;;;4.43;;
53545;SDS011;39432;51.902;10.844;2022-12-07T07:07:51;9.70;;;4.15;;
53545;SDS011;39432;51.902;10.844;2022-12-07T07:10:41;8.35;;;4.13;;
53545;SDS011;39432;51.902;10.844;2022-12-07T07:13:11;10.30;;;4.93;;
53545;SDS011;39432;51.902;10.844;2022-12-07T07:15:40;8.80;;;3.83;;
53545;SDS011;39432;51.902;10.844;2022-12-07T07:18:10;6.93;;;3.72;;
53545;SDS011;39432;51.902;10.844;2022-12-07T07:20:43;9.80;;;3.40;;
53545;SDS011;39432;51.902;10.844;2022-12-07T07:23:13;12.00;;;4.30;;
53545;SDS011;39432;51.902;10.844;2022-12-07T07:25:43;7.63;;;3.92;;
53545;SDS011;39432;51.902;10.844;2022-12-07T07:28:13;7.50;;;3.80;;
53545;SDS011;39432;51.902;10.844;2022-12-07T07:30:43;9.38;;;4.00;;
53545;SDS011;39432;51.902;10.844;2022-12-07T07:33:14;9.25;;;3.72;;
53545;SDS011;39432;51.902;10.844;2022-12-07T07:35:46;7.38;;;4.28;;
53545;SDS011;39432;51.902;10.844;2022-12-07T07:38:16;10.18;;;4.15;;
53545;SDS011;39432;51.902;10.844;2022-12-07T07:40:45;8.43;;;4.10;;
53545;SDS011;39432;51.902;10.844;2022-12-07T07:43:15;7.13;;;4.30;;
53545;SDS011;39432;51.902;10.844;2022-12-07T07:45:46;8.15;;;4.18;;
53545;SDS011;39432;51.902;10.844;2022-12-07T07:48:15;12.38;;;4.43;;
53545;SDS011;39432;51.902;10.844;2022-12-07T07:50:48;8.70;;;4.38;;
53545;SDS011;39432;51.902;10.844;2022-12-07T07:53:18;6.75;;;3.95;;
53545;SDS011;39432;51.902;10.844;2022-12-07T07:55:51;8.48;;;4.45;;
53545;SDS011;39432;51.902;10.844;2022-12-07T07:58:21;7.47;;;4.40;;
53545;SDS011;39432;51.902;10.844;2022-12-07T08:00:51;8.82;;;4.13;;
53545;SDS011;39432;51.902;10.844;2022-12-07T08:03:21;10.43;;;4.32;;
53545;SDS011;39432;51.902;10.844;2022-12-07T08:05:54;6.95;;;3.95;;
53545;SDS011;39432;51.902;10.844;2022-12-07T08:08:23;6.80;;;4.30;;
53545;SDS011;39432;51.902;10.844;2022-12-07T08:10:53;11.45;;;3.95;;
53545;SDS011;39432;51.902;10.844;2022-12-07T08:13:26;8.25;;;4.45;;
53545;SDS011;39432;51.902;10.844;2022-12-07T08:15:57;13.15;;;4.53;;
53545;SDS011;39432;51.902;10.844;2022-12-07T08:18:27;7.95;;;4.10;;
53545;SDS011;39432;51.902;10.844;2022-12-07T08:21:01;6.80;;;4.13;;
53545;SDS011;39432;51.902;10.844;2022-12-07T08:23:31;12.43;;;4.53;;
53545;SDS011;39432;51.902;10.844;2022-12-07T08:26:06;9.10;;;4.85;;
53545;SDS011;39432;51.902;10.844;2022-12-07T08:28:37;7.45;;;3.40;;
53545;SDS011;39432;51.902;10.844;2022-12-07T08:31:08;8.18;;;4.15;;
53545;SDS011;39432;51.902;10.844;2022-12-07T08:33:41;6.40;;;3.13;;
53545;SDS011;39432;51.902;10.844;2022-12-07T08:36:14;6.75;;;3.70;;
53545;SDS011;39432;51.902;10.844;2022-12-07T08:38:44;6.85;;;3.33;;
53545;SDS011;39432;51.902;10.844;2022-12-07T08:41:33;5.72;;;3.15;;
53545;SDS011;39432;51.902;10.844;2022-12-07T08:44:04;5.75;;;3.10;;
53545;SDS011;39432;51.902;10.844;2022-12-07T08:46:34;6.15;;;3.03;;
53545;SDS011;39432;51.902;10.844;2022-12-07T08:49:08;9.25;;;3.10;;
53545;SDS011;39432;51.902;10.844;2022-12-07T08:51:43;5.75;;;2.78;;
53545;SDS011;39432;51.902;10.844;2022-12-07T08:54:13;7.95;;;2.80;;
53545;SDS011;39432;51.902;10.844;2022-12-07T08:56:45;4.93;;;2.38;;
53545;SDS011;39432;51.902;10.844;2022-12-07T08:59:24;4.53;;;2.28;;
53545;SDS011;39432;51.902;10.844;2022-12-07T09:01:55;3.28;;;2.00;;
53545;SDS011;39432;51.902;10.844;2022-12-07T09:04:25;5.45;;;2.78;;
53545;SDS011;39432;51.902;10.844;2022-12-07T09:06:58;4.80;;;2.45;;
53545;SDS011;39432;51.902;10.844;2022-12-07T09:09:28;5.72;;;2.75;;
53545;SDS011;39432;51.902;10.844;2022-12-07T09:11:58;4.72;;;2.45;;
53545;SDS011;39432;51.902;10.844;2022-12-07T09:14:27;5.47;;;2.20;;
53545;SDS011;39432;51.902;10.844;2022-12-07T09:17:04;7.05;;;2.50;;
53545;SDS011;39432;51.902;10.844;2022-12-07T09:19:35;3.47;;;2.30;;
53545;SDS011;39432;51.902;10.844;2022-12-07T09:22:08;4.68;;;2.13;;
53545;SDS011;39432;51.902;10.844;2022-12-07T09:24:38;3.45;;;2.22;;
53545;SDS011;39432;51.902;10.844;2022-12-07T09:27:08;4.68;;;2.08;;
53545;SDS011;39432;51.902;10.844;2022-12-07T09:29:37;4.72;;;1.90;;
53545;SDS011;39432;51.902;10.844;2022-12-07T09:32:07;5.47;;;2.03;;
53545;SDS011;39432;51.902;10.844;2022-12-07T09:34:37;5.80;;;2.47;;
53545;SDS011;39432;51.902;10.844;2022-12-07T09:37:10;4.75;;;2.28;;
53545;SDS011;39432;51.902;10.844;2022-12-07T09:39:40;4.50;;;1.95;;
53545;SDS011;39432;51.902;10.844;2022-12-07T09:42:21;3.90;;;1.85;;
53545;SDS011;39432;51.902;10.844;2022-12-07T09:44:58;10.65;;;2.58;;
53545;SDS011;39432;51.902;10.844;2022-12-07T09:47:28;3.97;;;2.17;;
53545;SDS011;39432;51.902;10.844;2022-12-07T09:50:03;6.22;;;2.17;;
53545;SDS011;39432;51.902;10.844;2022-12-07T09:52:38;4.33;;;2.00;;
53545;SDS011;39432;51.902;10.844;2022-12-07T09:55:09;7.97;;;2.67;;
53545;SDS011;39432;51.902;10.844;2022-12-07T09:57:41;3.08;;;1.85;;
53545;SDS011;39432;51.902;10.844;2022-12-07T10:00:13;9.50;;;2.35;;
53545;SDS011;39432;51.902;10.844;2022-12-07T10:02:47;4.68;;;2.03;;
53545;SDS011;39432;51.902;10.844;2022-12-07T10:05:19;5.10;;;2.08;;
53545;SDS011;39432;51.902;10.844;2022-12-07T10:07:55;4.65;;;1.70;;
53545;SDS011;39432;51.902;10.844;2022-12-07T10:10:26;4.32;;;2.03;;
53545;SDS011;39432;51.902;10.844;2022-12-07T10:13:05;7.03;;;1.40;;
53545;SDS011;39432;51.902;10.844;2022-12-07T10:15:44;7.00;;;1.80;;
53545;SDS011;39432;51.902;10.844;2022-12-07T10:18:20;2.67;;;1.50;;
53545;SDS011;39432;51.902;10.844;2022-12-07T10:21:02;6.85;;;2.10;;
53545;SDS011;39432;51.902;10.844;2022-12-07T10:23:38;5.18;;;1.63;;
53545;SDS011;39432;51.902;10.844;2022-12-07T10:29:13;3.90;;;1.48;;
53545;SDS011;39432;51.902;10.844;2022-12-07T10:31:45;2.88;;;1.30;;
53545;SDS011;39432;51.902;10.844;2022-12-07T10:34:22;3.28;;;1.40;;
53545;SDS011;39432;51.902;10.844;2022-12-07T10:36:53;4.00;;;1.58;;
53545;SDS011;39432;51.902;10.844;2022-12-07T10:39:43;15.65;;;2.42;;
53545;SDS011;39432;51.902;10.844;2022-12-07T10:42:18;5.10;;;2.55;;
53545;SDS011;39432;51.902;10.844;2022-12-07T10:44:49;3.00;;;1.48;;
53545;SDS011;39432;51.902;10.844;2022-12-07T10:47:37;3.83;;;1.20;;
53545;SDS011;39432;51.902;10.844;2022-12-07T10:50:25;3.75;;;1.23;;
53545;SDS011;39432;51.902;10.844;2022-12-07T10:53:16;3.55;;;1.20;;
53545;SDS011;39432;51.902;10.844;2022-12-07T10:56:06;3.92;;;1.30;;
53545;SDS011;39432;51.902;10.844;2022-12-07T10:58:51;4.30;;;1.17;;
53545;SDS011;39432;51.902;10.844;2022-12-07T11:01:31;4.38;;;1.02;;
53545;SDS011;39432;51.902;10.844;2022-12-07T11:04:17;3.50;;;1.10;;
53545;SDS011;39432;51.902;10.844;2022-12-07T11:06:57;3.38;;;1.15;;
53545;SDS011;39432;51.902;10.844;2022-12-07T11:09:39;2.97;;;0.95;;
53545;SDS011;39432;51.902;10.844;2022-12-07T11:12:41;5.47;;;1.67;;
53545;SDS011;39432;51.902;10.844;2022-12-07T11:15:22;2.95;;;1.17;;
53545;SDS011;39432;51.902;10.844;2022-12-07T11:17:56;2.55;;;1.20;;
53545;SDS011;39432;51.902;10.844;2022-12-07T11:20:35;3.08;;;1.20;;
53545;SDS011;39432;51.902;10.844;2022-12-07T11:23:13;3.58;;;1.20;;
53545;SDS011;39432;51.902;10.844;2022-12-07T11:25:53;3.00;;;1.33;;
53545;SDS011;39432;51.902;10.844;2022-12-07T11:28:35;8.75;;;1.60;;
53545;SDS011;39432;51.902;10.844;2022-12-07T11:31:30;4.53;;;1.17;;
53545;SDS011;39432;51.902;10.844;2022-12-07T11:34:09;2.35;;;1.05;;
53545;SDS011;39432;51.902;10.844;2022-12-07T11:36:50;1.65;;;0.70;;
53545;SDS011;39432;51.902;10.844;2022-12-07T11:39:26;3.15;;;0.85;;
53545;SDS011;39432;51.902;10.844;2022-12-07T11:42:03;2.28;;;0.90;;
53545;SDS011;39432;51.902;10.844;2022-12-07T11:44:40;2.35;;;0.80;;
53545;SDS011;39432;51.902;10.844;2022-12-07T11:47:21;2.55;;;0.75;;
53545;SDS011;39432;51.902;10.844;2022-12-07T11:50:00;2.85;;;0.88;;
53545;SDS011;39432;51.902;10.844;2022-12-07T11:52:40;3.42;;;1.08;;
53545;SDS011;39432;51.902;10.844;2022-12-07T11:55:19;1.55;;;0.70;;
53545;SDS011;39432;51.902;10.844;2022-12-07T11:57:56;3.92;;;0.90;;
53545;SDS011;39432;51.902;10.844;2022-12-07T12:00:34;2.38;;;1.10;;
53545;SDS011;39432;51.902;10.844;2022-12-07T12:03:08;2.85;;;0.90;;
53545;SDS011;39432;51.902;10.844;2022-12-07T12:05:42;4.15;;;1.20;;
53545;SDS011;39432;51.902;10.844;2022-12-07T12:08:13;3.10;;;0.80;;
53545;SDS011;39432;51.902;10.844;2022-12-07T12:11:10;2.15;;;0.90;;
53545;SDS011;39432;51.902;10.844;2022-12-07T12:14:01;3.67;;;0.85;;
53545;SDS011;39432;51.902;10.844;2022-12-07T12:17:16;3.60;;;0.90;;
53545;SDS011;39432;51.902;10.844;2022-12-07T12:20:15;1.73;;;0.85;;
53545;SDS011;39432;51.902;10.844;2022-12-07T12:22:51;2.50;;;0.75;;
53545;SDS011;39432;51.902;10.844;2022-12-07T12:25:24;1.77;;;0.93;;
53545;SDS011;39432;51.902;10.844;2022-12-07T12:27:58;2.80;;;0.90;;
53545;SDS011;39432;51.902;10.844;2022-12-07T12:30:30;3.45;;;1.20;;
53545;SDS011;39432;51.902;10.844;2022-12-07T12:33:06;2.80;;;1.15;;
53545;SDS011;39432;51.902;10.844;2022-12-07T12:35:44;2.80;;;0.75;;
53545;SDS011;39432;51.902;10.844;2022-12-07T12:38:21;2.28;;;0.73;;
53545;SDS011;39432;51.902;10.844;2022-12-07T12:40:56;4.63;;;1.00;;
53545;SDS011;39432;51.902;10.844;2022-12-07T12:46:38;2.95;;;0.82;;
53545;SDS011;39432;51.902;10.844;2022-12-07T13:04:17;4.63;;;1.00;;
53545;SDS011;39432;51.902;10.844;2022-12-07T13:06:52;2.95;;;1.10;;
53545;SDS011;39432;51.902;10.844;2022-12-07T13:09:25;3.30;;;0.90;;
53545;SDS011;39432;51.902;10.844;2022-12-07T13:11:59;5.55;;;1.10;;
53545;SDS011;39432;51.902;10.844;2022-12-07T13:14:39;5.22;;;1.00;;
53545;SDS011;39432;51.902;10.844;2022-12-07T13:23:18;5.60;;;1.17;;
53545;SDS011;39432;51.902;10.844;2022-12-07T13:26:01;4.20;;;0.90;;
53545;SDS011;39432;51.902;10.844;2022-12-07T13:28:44;3.08;;;0.52;;
53545;SDS011;39432;51.902;10.844;2022-12-07T13:31:18;3.05;;;0.90;;
53545;SDS011;39432;51.902;10.844;2022-12-07T13:33:53;2.28;;;0.60;;
53545;SDS011;39432;51.902;10.844;2022-12-07T13:36:23;1.67;;;0.50;;
53545;SDS011;39432;51.902;10.844;2022-12-07T13:38:55;1.90;;;0.57;;
53545;SDS011;39432;51.902;10.844;2022-12-07T13:41:29;4.20;;;0.32;;
53545;SDS011;39432;51.902;10.844;2022-12-07T13:44:00;1.75;;;0.30;;
53545;SDS011;39432;51.902;10.844;2022-12-07T13:46:43;0.60;;;0.20;;
53545;SDS011;39432;51.902;10.844;2022-12-07T13:49:21;1.05;;;0.30;;
53545;SDS011;39432;51.902;10.844;2022-12-07T13:51:53;0.68;;;0.30;;
53545;SDS011;39432;51.902;10.844;2022-12-07T13:54:24;0.75;;;0.15;;
53545;SDS011;39432;51.902;10.844;2022-12-07T13:56:56;0.40;;;0.20;;
53545;SDS011;39432;51.902;10.844;2022-12-07T13:59:26;0.95;;;0.30;;
53545;SDS011;39432;51.902;10.844;2022-12-07T14:01:59;1.95;;;0.60;;
53545;SDS011;39432;51.902;10.844;2022-12-07T14:04:30;1.25;;;0.40;;
53545;SDS011;39432;51.902;10.844;2022-12-07T14:12:28;3.85;;;0.88;;
53545;SDS011;39432;51.902;10.844;2022-12-07T14:14:59;3.75;;;1.13;;
53545;SDS011;39432;51.902;10.844;2022-12-07T14:17:32;3.85;;;1.15;;
53545;SDS011;39432;51.902;10.844;2022-12-07T14:20:02;4.78;;;1.58;;
53545;SDS011;39432;51.902;10.844;2022-12-07T14:22:34;4.35;;;1.80;;
53545;SDS011;39432;51.902;10.844;2022-12-07T14:25:19;4.18;;;1.88;;
53545;SDS011;39432;51.902;10.844;2022-12-07T14:27:53;4.55;;;1.75;;
53545;SDS011;39432;51.902;10.844;2022-12-07T14:30:26;6.30;;;2.08;;
53545;SDS011;39432;51.902;10.844;2022-12-07T14:32:58;4.30;;;2.00;;
53545;SDS011;39432;51.902;10.844;2022-12-07T14:35:29;7.75;;;2.30;;
53545;SDS011;39432;51.902;10.844;2022-12-07T14:38:00;4.72;;;1.70;;
53545;SDS011;39432;51.902;10.844;2022-12-07T14:40:30;2.47;;;1.20;;
53545;SDS011;39432;51.902;10.844;2022-12-07T14:43:03;2.97;;;1.30;;
53545;SDS011;39432;51.902;10.844;2022-12-07T14:45:36;4.00;;;1.27;;
53545;SDS011;39432;51.902;10.844;2022-12-07T14:48:07;8.73;;;2.30;;
53545;SDS011;39432;51.902;10.844;2022-12-07T14:51:00;6.97;;;1.63;;
53545;SDS011;39432;51.902;10.844;2022-12-07T14:53:50;5.60;;;1.30;;
53545;SDS011;39432;51.902;10.844;2022-12-07T14:56:23;3.78;;;1.10;;
53545;SDS011;39432;51.902;10.844;2022-12-07T14:58:56;5.50;;;1.30;;
53545;SDS011;39432;51.902;10.844;2022-12-07T15:01:26;4.40;;;0.88;;
53545;SDS011;39432;51.902;10.844;2022-12-07T15:03:56;4.88;;;1.20;;
53545;SDS011;39432;51.902;10.844;2022-12-07T15:06:26;4.95;;;1.00;;
53545;SDS011;39432;51.902;10.844;2022-12-07T15:08:56;3.78;;;1.13;;
53545;SDS011;39432;51.902;10.844;2022-12-07T15:11:26;4.50;;;0.95;;
53545;SDS011;39432;51.902;10.844;2022-12-07T15:13:58;3.55;;;0.90;;
53545;SDS011;39432;51.902;10.844;2022-12-07T15:16:39;6.57;;;1.20;;
53545;SDS011;39432;51.902;10.844;2022-12-07T15:19:32;3.10;;;1.00;;
53545;SDS011;39432;51.902;10.844;2022-12-07T15:22:01;3.47;;;1.25;;
53545;SDS011;39432;51.902;10.844;2022-12-07T15:24:31;5.10;;;1.48;;
53545;SDS011;39432;51.902;10.844;2022-12-07T15:27:02;10.85;;;3.45;;
53545;SDS011;39432;51.902;10.844;2022-12-07T15:29:35;9.57;;;2.00;;
53545;SDS011;39432;51.902;10.844;2022-12-07T15:32:05;15.23;;;4.63;;
53545;SDS011;39432;51.902;10.844;2022-12-07T15:34:35;12.50;;;4.00;;
53545;SDS011;39432;51.902;10.844;2022-12-07T15:37:06;14.40;;;4.70;;
53545;SDS011;39432;51.902;10.844;2022-12-07T15:39:36;10.27;;;2.95;;
53545;SDS011;39432;51.902;10.844;2022-12-07T15:42:06;14.15;;;4.13;;
53545;SDS011;39432;51.902;10.844;2022-12-07T15:44:39;9.35;;;2.30;;
53545;SDS011;39432;51.902;10.844;2022-12-07T15:47:21;7.63;;;1.63;;
53545;SDS011;39432;51.902;10.844;2022-12-07T15:49:51;5.82;;;1.30;;
53545;SDS011;39432;51.902;10.844;2022-12-07T15:52:23;4.78;;;1.58;;
53545;SDS011;39432;51.902;10.844;2022-12-07T15:54:53;5.07;;;1.40;;